Time;durP1;ratioP1;P1;durP2;ratioP2;P2;SDS_P1;SDS_P2;PMS_P1;PMS_P2;Temp;Humidity;BMP_temperature;BMP_pressure;BME280_temperature;BME280_humidity;BME280_pressure;Samples;Min_cycle;Max_cycle;Signal;HPM_P1;HPM_P2
2021/07/21 00:01:50;;;;;;;6.32;3.28;;;19.20;69.40;;;;;;5032668;28;20025;-81
2021/07/21 00:04:16;;;;;;;6.50;2.92;;;19.20;69.30;;;;;;5032118;28;20025;-81
2021/07/21 00:06:41;;;;;;;6.05;2.88;;;19.10;69.40;;;;;;5031120;28;20037;-81
2021/07/21 00:09:07;;;;;;;6.70;3.08;;;19.10;69.50;;;;;;5031289;28;20029;-84
2021/07/21 00:14:20;;;;;;;5.85;2.92;;;19.10;69.80;;;;;;5031955;28;20129;-82
2021/07/21 00:16:55;;;;;;;5.60;2.78;;;19.10;69.80;;;;;;5032427;28;20476;-82
2021/07/21 00:22:05;;;;;;;6.50;3.25;;;19.00;70.10;;;;;;5032361;28;20099;-82
2021/07/21 00:24:31;;;;;;;5.82;2.65;;;19.00;70.20;;;;;;5031546;28;20022;-82
2021/07/21 00:26:56;;;;;;;7.40;3.20;;;19.00;70.40;;;;;;5030814;28;20449;-81
2021/07/21 00:29:22;;;;;;;6.95;3.22;;;18.90;70.50;;;;;;5031662;28;20025;-81
2021/07/21 00:31:48;;;;;;;6.30;3.00;;;18.90;70.60;;;;;;5032185;28;20029;-83
2021/07/21 00:34:14;;;;;;;5.15;2.50;;;18.90;70.60;;;;;;5030927;28;20038;-83
2021/07/21 00:36:39;;;;;;;6.95;2.50;;;18.90;70.80;;;;;;5030557;28;20473;-82
2021/07/21 00:39:05;;;;;;;5.22;2.33;;;18.80;70.90;;;;;;5030891;28;20033;-82
2021/07/21 00:41:31;;;;;;;6.22;3.00;;;18.80;71.20;;;;;;5030273;28;20021;-82
2021/07/21 00:43:57;;;;;;;6.13;2.67;;;18.70;71.50;;;;;;5032267;28;20080;-82
2021/07/21 00:46:22;;;;;;;7.78;3.15;;;18.70;71.80;;;;;;5030208;28;20418;-82
2021/07/21 00:48:49;;;;;;;6.57;2.78;;;18.70;71.90;;;;;;5030709;28;20391;-82
2021/07/21 00:51:17;;;;;;;6.68;2.97;;;18.70;72.00;;;;;;5030652;28;20527;-83
2021/07/21 00:53:43;;;;;;;7.07;3.28;;;18.70;72.20;;;;;;5030629;28;20030;-83
2021/07/21 00:56:09;;;;;;;6.28;2.97;;;18.70;72.10;;;;;;5031657;28;20037;-81
2021/07/21 00:58:35;;;;;;;6.05;2.80;;;18.70;72.10;;;;;;5031338;28;20025;-82
2021/07/21 01:01:01;;;;;;;6.07;2.70;;;18.60;72.20;;;;;;5032182;28;20032;-82
2021/07/21 01:03:26;;;;;;;5.60;3.05;;;18.60;72.20;;;;;;5031140;28;20044;-81
2021/07/21 01:05:52;;;;;;;6.38;3.13;;;18.60;72.30;;;;;;5030484;28;20040;-82
2021/07/21 01:08:19;;;;;;;5.43;2.80;;;18.60;72.40;;;;;;5031233;28;20029;-81
2021/07/21 01:10:54;;;;;;;5.15;2.58;;;18.50;72.50;;;;;;5031949;28;20040;-82
2021/07/21 01:13:25;;;;;;;7.35;3.33;;;18.50;72.60;;;;;;5030109;28;20109;-81
2021/07/21 01:15:54;;;;;;;;;;;18.40;72.70;;;;;;5032523;28;20056;-82
2021/07/21 01:19:03;;;;;;;5.28;2.30;;;18.40;72.60;;;;;;5031447;28;20010;-82
2021/07/21 01:21:57;;;;;;;5.90;2.53;;;18.40;72.90;;;;;;5029395;28;20061;-82
2021/07/21 01:24:48;;;;;;;7.45;2.83;;;18.40;73.00;;;;;;5031210;28;20029;-81
2021/07/21 01:27:21;;;;;;;5.88;3.13;;;18.30;73.10;;;;;;5031786;28;20038;-82
2021/07/21 01:29:52;;;;;;;5.90;2.92;;;18.30;73.20;;;;;;5031770;28;20415;-82
2021/07/21 01:32:19;;;;;;;;;;;18.20;73.60;;;;;;5030632;28;20381;-78
2021/07/21 01:34:49;;;;;;;6.43;2.70;;;18.20;73.40;;;;;;5030456;28;19913;-82
2021/07/21 01:37:15;;;;;;;6.40;2.97;;;18.20;73.60;;;;;;5030420;28;20128;-82
2021/07/21 01:39:47;;;;;;;5.13;3.00;;;18.30;73.70;;;;;;5030725;28;20100;-82
2021/07/21 01:42:16;;;;;;;6.63;3.13;;;18.20;73.70;;;;;;5031693;28;20404;-85
2021/07/21 01:44:47;;;;;;;6.05;2.83;;;18.20;73.90;;;;;;5029705;28;20052;-85
2021/07/21 01:47:21;;;;;;;7.50;2.70;;;18.20;74.00;;;;;;5031554;28;20026;-84
2021/07/21 01:49:50;;;;;;;5.88;2.92;;;18.20;74.10;;;;;;5034456;28;20058;-82
2021/07/21 01:52:18;;;;;;;8.27;3.53;;;18.20;74.10;;;;;;5033629;28;20022;-83
2021/07/21 01:54:45;;;;;;;7.18;2.88;;;18.20;74.10;;;;;;5034839;28;20061;-83
2021/07/21 01:57:12;;;;;;;6.18;3.05;;;18.10;74.20;;;;;;5033692;28;20087;-82
2021/07/21 01:59:43;;;;;;;5.95;2.97;;;18.20;74.40;;;;;;5034390;28;20512;-82
2021/07/21 02:02:09;;;;;;;8.23;3.08;;;18.10;75.30;;;;;;5033815;28;20037;-82
2021/07/21 02:04:38;;;;;;;7.13;3.10;;;18.10;74.60;;;;;;5033153;28;20108;-82
2021/07/21 02:07:09;;;;;;;7.82;3.03;;;18.10;74.70;;;;;;5035204;28;20493;-82
2021/07/21 02:09:36;;;;;;;7.13;3.08;;;18.20;74.70;;;;;;5033851;28;20029;-82
2021/07/21 02:12:02;;;;;;;6.43;3.20;;;18.10;74.70;;;;;;5035458;28;20028;-82
2021/07/21 02:14:28;;;;;;;6.57;2.83;;;18.10;74.70;;;;;;5033145;28;20125;-82
2021/07/21 02:16:56;;;;;;;7.38;3.08;;;18.10;74.80;;;;;;5034956;28;20030;-85
2021/07/21 02:19:22;;;;;;;6.18;2.83;;;18.10;74.90;;;;;;5033350;28;20044;-80
2021/07/21 02:21:48;;;;;;;6.70;3.10;;;18.10;74.90;;;;;;5034816;28;20036;-84
2021/07/21 02:24:14;;;;;;;6.00;3.03;;;18.10;74.90;;;;;;5033392;28;20026;-84
2021/07/21 02:26:41;;;;;;;5.57;2.85;;;18.10;75.00;;;;;;5033864;28;20116;-84
2021/07/21 02:29:08;;;;;;;6.35;2.92;;;18.10;75.10;;;;;;5033145;28;20033;-84
2021/07/21 02:31:44;;;;;;;7.38;3.42;;;18.10;75.10;;;;;;5032800;28;20045;-83
2021/07/21 02:34:10;;;;;;;7.85;2.90;;;18.10;75.20;;;;;;5034572;28;20088;-84
2021/07/21 02:36:37;;;;;;;8.60;2.90;;;18.10;75.10;;;;;;5033707;28;20025;-84
2021/07/21 02:39:06;;;;;;;6.38;3.20;;;18.00;75.20;;;;;;5034332;28;20109;-84
2021/07/21 02:41:34;;;;;;;6.30;2.85;;;18.00;75.40;;;;;;5032554;28;20064;-83
2021/07/21 02:44:00;;;;;;;6.90;3.53;;;18.00;75.30;;;;;;5032994;28;20018;-83
2021/07/21 02:46:26;;;;;;;8.50;3.45;;;18.00;75.50;;;;;;5033188;28;20056;-83
2021/07/21 02:48:52;;;;;;;6.35;3.20;;;18.00;75.50;;;;;;5032615;28;20490;-83
2021/07/21 02:51:20;;;;;;;10.30;3.47;;;18.00;75.70;;;;;;5032907;28;20493;-84
2021/07/21 02:53:54;;;;;;;7.18;2.88;;;18.00;75.80;;;;;;5032338;28;20120;-85
2021/07/21 02:56:21;;;;;;;8.00;3.13;;;18.00;75.90;;;;;;5033913;28;20060;-84
2021/07/21 02:59:03;;;;;;;9.27;3.80;;;18.00;75.90;;;;;;5031906;28;20053;-83
2021/07/21 03:01:32;;;;;;;6.28;3.28;;;18.00;76.00;;;;;;5032188;28;20128;-83
2021/07/21 03:04:00;;;;;;;6.32;2.85;;;17.90;76.00;;;;;;5032824;28;20022;-83
2021/07/21 03:06:27;;;;;;;7.57;3.20;;;17.90;76.10;;;;;;5033003;28;20033;-82
2021/07/21 03:08:53;;;;;;;6.43;2.90;;;17.90;76.10;;;;;;5032969;28;20022;-83
2021/07/21 03:11:23;;;;;;;7.97;3.72;;;17.90;76.30;;;;;;5034072;28;20104;-84
2021/07/21 03:13:52;;;;;;;5.68;3.17;;;17.90;76.50;;;;;;5028356;28;20425;-83
2021/07/21 03:16:23;;;;;;;9.05;3.28;;;17.90;76.70;;;;;;5013337;28;20645;-84
2021/07/21 03:18:52;;;;;;;6.35;3.00;;;17.90;76.90;;;;;;5028853;28;20036;-83
2021/07/21 03:21:19;;;;;;;6.57;3.08;;;17.90;76.90;;;;;;5013740;28;20104;-83
2021/07/21 03:23:46;;;;;;;8.65;3.33;;;17.90;77.00;;;;;;5028300;28;20033;-83
2021/07/21 03:26:13;;;;;;;7.60;3.28;;;17.90;77.00;;;;;;5028872;28;20064;-84
2021/07/21 03:28:40;;;;;;;7.88;3.67;;;17.80;77.00;;;;;;5028314;28;20105;-84
2021/07/21 03:31:06;;;;;;;6.22;3.20;;;17.80;77.10;;;;;;5028771;28;20025;-84
2021/07/21 03:33:32;;;;;;;7.63;3.47;;;17.80;77.30;;;;;;5028247;28;20112;-83
2021/07/21 03:36:04;;;;;;;9.68;3.78;;;17.80;77.40;;;;;;5013913;28;20113;-83
2021/07/21 03:38:30;;;;;;;6.35;3.10;;;17.80;77.50;;;;;;5028163;28;20026;-82
2021/07/21 03:40:57;;;;;;;6.65;3.40;;;17.80;77.40;;;;;;5013448;28;20030;-83
2021/07/21 03:43:24;;;;;;;8.68;3.67;;;17.80;77.40;;;;;;5045158;28;20476;-84
2021/07/21 03:45:51;;;;;;;6.97;3.55;;;17.80;77.50;;;;;;5012917;28;20042;-83
2021/07/21 03:48:18;;;;;;;12.00;3.67;;;17.80;77.60;;;;;;5028414;28;20050;-84
2021/07/21 03:50:45;;;;;;;9.27;3.88;;;17.80;77.70;;;;;;5044515;28;20018;-83
2021/07/21 03:53:12;;;;;;;8.32;3.70;;;17.70;77.90;;;;;;5013443;28;20038;-84
2021/07/21 03:55:39;;;;;;;8.15;3.80;;;17.70;78.00;;;;;;5012761;28;20029;-84
2021/07/21 03:58:05;;;;;;;8.85;3.42;;;17.80;78.10;;;;;;5013548;28;20029;-84
2021/07/21 04:00:31;;;;;;;9.77;3.97;;;17.80;78.10;;;;;;5012678;28;20529;-83
2021/07/21 04:02:59;;;;;;;8.43;3.90;;;17.80;78.20;;;;;;5045007;28;20068;-84
2021/07/21 04:05:27;;;;;;;7.32;3.80;;;17.80;78.30;;;;;;5044973;28;20102;-84
2021/07/21 04:07:55;;;;;;;7.03;3.60;;;17.70;78.90;;;;;;5015833;28;20036;-85
2021/07/21 04:10:21;;;;;;;7.15;3.38;;;17.70;78.20;;;;;;5021086;28;20025;-84
2021/07/21 04:12:51;;;;;;;7.47;3.65;;;17.70;78.30;;;;;;5016742;28;20029;-84
2021/07/21 04:15:21;;;;;;;7.72;3.97;;;17.70;78.40;;;;;;5032868;28;20029;-84
2021/07/21 04:17:49;;;;;;;8.88;3.90;;;17.70;78.40;;;;;;5032305;28;20032;-84
2021/07/21 04:20:15;;;;;;;10.57;4.28;;;17.70;78.40;;;;;;5033070;28;20050;-84
2021/07/21 04:22:42;;;;;;;9.55;3.97;;;17.70;78.60;;;;;;5032585;28;20045;-84
2021/07/21 04:25:10;;;;;;;8.43;4.13;;;17.70;78.70;;;;;;5032975;28;20029;-84
2021/07/21 04:27:38;;;;;;;6.78;3.85;;;17.70;78.90;;;;;;5032609;28;20086;-84
2021/07/21 04:30:05;;;;;;;7.95;3.83;;;17.70;79.00;;;;;;5032242;28;20018;-84
2021/07/21 04:32:32;;;;;;;7.78;4.05;;;17.70;79.00;;;;;;5034531;28;20021;-80
2021/07/21 04:34:58;;;;;;;8.85;4.13;;;17.70;79.00;;;;;;5042491;28;20032;-85
2021/07/21 04:37:24;;;;;;;9.15;4.20;;;17.70;79.10;;;;;;5053010;28;20085;-85
2021/07/21 04:39:52;;;;;;;7.50;4.22;;;17.70;79.30;;;;;;5052663;28;20040;-85
2021/07/21 04:42:19;;;;;;;8.60;3.80;;;17.70;79.40;;;;;;5038414;28;20117;-84
2021/07/21 04:44:46;;;;;;;9.27;4.53;;;17.80;79.50;;;;;;5032681;28;20056;-84
2021/07/21 04:47:12;;;;;;;7.35;3.90;;;17.80;79.50;;;;;;5027518;28;20441;-84
2021/07/21 04:49:41;;;;;;;9.18;3.83;;;17.80;79.60;;;;;;5011967;28;20454;-84
2021/07/21 04:52:07;;;;;;;7.75;3.75;;;17.80;79.60;;;;;;5027927;28;20025;-84
2021/07/21 04:54:34;;;;;;;8.65;4.03;;;17.80;79.70;;;;;;5013017;28;20033;-81
2021/07/21 04:57:00;;;;;;;11.43;4.32;;;17.80;79.70;;;;;;5026672;28;20030;-82
2021/07/21 04:59:26;;;;;;;11.52;4.13;;;17.80;79.80;;;;;;5009956;28;20032;-82
2021/07/21 05:01:54;;;;;;;10.55;4.30;;;17.90;79.80;;;;;;5009374;28;20026;-83
2021/07/21 05:04:19;;;;;;;10.02;4.05;;;17.90;79.80;;;;;;5025332;28;20042;-82
2021/07/21 05:06:46;;;;;;;7.15;3.90;;;18.00;80.00;;;;;;5009256;28;20516;-81
2021/07/21 05:09:12;;;;;;;8.15;4.13;;;18.10;80.00;;;;;;5010538;28;20022;-82
2021/07/21 05:11:38;;;;;;;8.85;3.85;;;18.10;79.90;;;;;;5008903;28;20029;-84
2021/07/21 05:14:05;;;;;;;8.32;4.05;;;18.20;79.90;;;;;;5009819;28;20026;-84
2021/07/21 05:16:31;;;;;;;13.00;4.78;;;18.20;79.90;;;;;;5008716;28;20034;-84
2021/07/21 05:18:57;;;;;;;12.50;5.18;;;18.30;79.90;;;;;;5009365;28;20522;-84
2021/07/21 05:21:23;;;;;;;10.93;4.97;;;18.40;79.80;;;;;;5009962;28;20069;-83
2021/07/21 05:23:49;;;;;;;9.95;4.45;;;18.40;79.70;;;;;;5011985;28;20486;-83
2021/07/21 05:26:15;;;;;;;9.32;4.47;;;18.50;79.60;;;;;;5029219;28;20362;-83
2021/07/21 05:28:41;;;;;;;10.57;4.82;;;18.50;79.40;;;;;;5028685;28;20516;-84
2021/07/21 05:31:08;;;;;;;9.60;4.68;;;18.60;79.50;;;;;;5014111;28;20060;-80
2021/07/21 05:33:35;;;;;;;8.23;4.32;;;18.60;79.40;;;;;;5026373;28;20469;-81
2021/07/21 05:36:03;;;;;;;8.52;4.75;;;18.70;79.50;;;;;;5032872;28;20030;-81
2021/07/21 05:38:28;;;;;;;9.93;4.30;;;18.70;79.40;;;;;;5033946;28;20366;-82
2021/07/21 05:40:54;;;;;;;9.85;4.22;;;18.70;79.40;;;;;;5034657;28;20457;-81
2021/07/21 05:43:21;;;;;;;8.25;4.63;;;18.80;79.50;;;;;;5033642;28;20120;-82
2021/07/21 05:45:47;;;;;;;11.85;4.78;;;18.80;79.40;;;;;;5032952;28;20060;-82
2021/07/21 05:48:12;;;;;;;9.18;4.50;;;18.80;79.50;;;;;;5034381;28;20417;-82
2021/07/21 05:50:38;;;;;;;10.65;4.95;;;18.80;79.60;;;;;;5034566;28;20502;-81
2021/07/21 05:53:04;;;;;;;9.45;4.70;;;18.90;79.60;;;;;;5033828;28;20355;-85
2021/07/21 05:55:31;;;;;;;10.00;4.70;;;18.90;79.60;;;;;;5034096;28;20024;-83
2021/07/21 05:57:57;;;;;;;14.05;5.55;;;19.00;79.40;;;;;;5033287;28;20408;-82
2021/07/21 06:00:22;;;;;;;9.68;5.22;;;19.00;79.50;;;;;;5035073;28;20484;-83
2021/07/21 06:02:48;;;;;;;11.65;5.60;;;19.10;79.40;;;;;;5034321;28;20022;-83
2021/07/21 06:05:14;;;;;;;8.93;4.88;;;19.10;79.30;;;;;;5034882;28;20129;-82
2021/07/21 06:07:39;;;;;;;10.38;4.72;;;19.10;79.20;;;;;;5033071;28;20017;-82
2021/07/21 06:10:07;;;;;;;10.77;4.72;;;19.10;79.20;;;;;;5035188;28;20087;-83
2021/07/21 06:12:33;;;;;;;9.35;5.00;;;19.10;79.20;;;;;;5034811;28;20100;-83
2021/07/21 06:14:59;;;;;;;8.80;4.97;;;19.10;79.30;;;;;;5032817;28;20436;-83
2021/07/21 06:17:25;;;;;;;10.95;4.93;;;19.20;79.30;;;;;;5034794;28;20424;-83
2021/07/21 06:19:51;;;;;;;9.20;4.68;;;19.20;79.20;;;;;;5032929;28;20018;-83
2021/07/21 06:22:18;;;;;;;11.90;5.28;;;19.20;79.10;;;;;;5034328;28;20139;-83
2021/07/21 06:24:45;;;;;;;7.00;3.90;;;19.30;79.20;;;;;;5032803;28;20088;-82
2021/07/21 06:27:11;;;;;;;10.38;4.88;;;19.30;79.20;;;;;;5033095;28;20055;-83
2021/07/21 06:29:37;;;;;;;10.98;4.97;;;19.40;79.20;;;;;;5034608;28;20497;-83
2021/07/21 06:32:03;;;;;;;12.32;5.00;;;19.40;78.60;;;;;;5032597;28;20025;-86
2021/07/21 06:34:29;;;;;;;7.80;4.28;;;19.40;79.10;;;;;;5033803;28;20485;-83
2021/07/21 06:36:54;;;;;;;12.75;5.50;;;19.50;79.20;;;;;;5033742;28;20021;-82
2021/07/21 06:39:20;;;;;;;10.50;5.05;;;19.50;79.10;;;;;;5033115;28;20480;-83
2021/07/21 06:41:45;;;;;;;12.48;5.65;;;19.60;79.10;;;;;;5033330;28;20628;-83
2021/07/21 06:44:11;;;;;;;9.75;4.80;;;19.60;78.90;;;;;;5032952;28;20104;-83
2021/07/21 06:46:37;;;;;;;11.07;4.95;;;19.70;78.80;;;;;;5034293;28;20034;-85
2021/07/21 06:49:03;;;;;;;11.35;5.22;;;19.70;78.90;;;;;;5033211;28;20171;-83
2021/07/21 06:51:28;;;;;;;10.50;4.70;;;19.80;78.80;;;;;;5032613;28;20064;-83
2021/07/21 06:53:54;;;;;;;10.07;4.68;;;19.90;78.70;;;;;;5033446;28;20021;-83
2021/07/21 06:56:20;;;;;;;10.68;5.63;;;19.90;78.40;;;;;;5034036;28;20032;-83
2021/07/21 06:58:46;;;;;;;12.45;5.05;;;19.90;78.40;;;;;;5032963;28;20032;-82
2021/07/21 07:01:12;;;;;;;9.93;5.60;;;19.90;78.40;;;;;;5034397;28;20025;-83
2021/07/21 07:03:38;;;;;;;13.20;5.47;;;19.90;78.60;;;;;;5034401;28;20132;-83
2021/07/21 07:06:04;;;;;;;9.88;4.90;;;19.90;78.50;;;;;;5032303;28;20545;-82
2021/07/21 07:08:30;;;;;;;13.70;5.82;;;20.00;78.50;;;;;;5033818;28;20026;-83
2021/07/21 07:10:56;;;;;;;11.10;5.20;;;20.10;78.20;;;;;;5031884;28;20121;-83
2021/07/21 07:13:22;;;;;;;13.07;5.82;;;20.20;78.10;;;;;;5033909;28;20028;-83
2021/07/21 07:15:51;;;;;;;10.93;5.30;;;20.20;78.00;;;;;;5031982;28;20480;-83
2021/07/21 07:18:20;;;;;;;12.63;5.65;;;20.30;77.90;;;;;;5032162;28;20120;-83
2021/07/21 07:20:47;;;;;;;10.50;5.53;;;20.30;77.70;;;;;;5032907;28;20032;-83
2021/07/21 07:23:13;;;;;;;14.73;5.57;;;20.30;77.40;;;;;;5032375;28;20494;-85
2021/07/21 07:25:40;;;;;;;9.68;5.35;;;20.40;77.40;;;;;;5033599;28;20089;-83
2021/07/21 07:28:06;;;;;;;10.80;5.80;;;20.40;77.30;;;;;;5031774;28;20404;-84
2021/07/21 07:30:33;;;;;;;11.85;5.47;;;20.40;77.20;;;;;;5032190;28;20021;-85
2021/07/21 07:32:58;;;;;;;11.15;5.20;;;20.40;77.00;;;;;;5033168;28;20037;-83
2021/07/21 07:35:25;;;;;;;13.20;5.93;;;20.40;76.80;;;;;;5033367;28;20083;-84
2021/07/21 07:37:50;;;;;;;11.02;5.38;;;20.50;76.90;;;;;;5032965;28;20021;-84
2021/07/21 07:40:17;;;;;;;15.93;5.70;;;20.50;76.80;;;;;;5031897;28;20021;-84
2021/07/21 07:42:43;;;;;;;15.25;5.80;;;20.60;76.80;;;;;;5033252;28;20028;-84
2021/07/21 07:45:09;;;;;;;11.32;5.93;;;20.60;76.60;;;;;;5032727;28;20105;-84
2021/07/21 07:47:35;;;;;;;11.90;5.32;;;20.60;76.50;;;;;;5031175;28;20038;-84
2021/07/21 07:50:09;;;;;;;10.82;5.25;;;20.60;76.30;;;;;;5031072;28;20515;-84
2021/07/21 07:52:35;;;;;;;12.88;5.55;;;20.70;76.40;;;;;;5033167;28;20442;-84
2021/07/21 07:55:02;;;;;;;11.65;6.07;;;20.70;76.30;;;;;;5031436;28;20029;-84
2021/07/21 07:57:28;;;;;;;19.23;5.60;;;20.80;76.30;;;;;;5031757;28;20026;-84
2021/07/21 07:59:54;;;;;;;8.48;4.43;;;20.80;76.20;;;;;;5031083;28;20484;-84
2021/07/21 08:02:19;;;;;;;13.30;6.30;;;20.90;76.20;;;;;;5032907;28;20104;-85
2021/07/21 08:04:45;;;;;;;11.30;5.38;;;20.90;76.10;;;;;;5031379;28;20060;-84
2021/07/21 08:07:11;;;;;;;13.63;5.60;;;21.00;76.00;;;;;;5032319;28;20029;-86
2021/07/21 08:09:37;;;;;;;11.82;6.00;;;21.00;75.80;;;;;;5033005;28;20032;-86
2021/07/21 08:12:03;;;;;;;14.00;6.10;;;21.00;75.80;;;;;;5031166;28;20021;-84
2021/07/21 08:14:29;;;;;;;14.02;5.93;;;21.00;75.90;;;;;;5032538;28;20068;-85
2021/07/21 08:16:55;;;;;;;10.77;5.07;;;21.00;76.00;;;;;;5031884;28;20037;-85
2021/07/21 08:19:23;;;;;;;13.15;6.00;;;20.90;76.20;;;;;;5032932;28;20350;-85
2021/07/21 08:21:49;;;;;;;11.48;5.65;;;20.90;76.60;;;;;;5031387;28;20021;-83
2021/07/21 08:24:15;;;;;;;11.93;5.68;;;20.80;77.00;;;;;;5032212;28;20037;-85
2021/07/21 08:26:41;;;;;;;14.18;6.22;;;20.70;77.50;;;;;;5032182;28;20037;-85
2021/07/21 08:29:08;;;;;;;14.15;6.28;;;20.60;77.70;;;;;;5032078;28;20026;-85
2021/07/21 08:31:34;;;;;;;9.90;5.15;;;20.60;77.90;;;;;;5031449;28;20022;-85
2021/07/21 08:34:01;;;;;;;10.95;5.63;;;20.60;78.10;;;;;;5031887;28;20078;-85
2021/07/21 08:36:31;;;;;;;11.77;5.40;;;20.50;78.20;;;;;;5032617;28;20026;-85
2021/07/21 08:38:57;;;;;;;13.73;6.15;;;20.60;78.50;;;;;;5031767;28;20080;-85
2021/07/21 08:41:26;;;;;;;10.82;5.30;;;20.50;78.40;;;;;;5032113;28;20474;-85
2021/07/21 08:43:51;;;;;;;10.43;5.70;;;20.60;78.40;;;;;;5031894;28;20484;-84
2021/07/21 08:46:17;;;;;;;11.60;5.50;;;20.50;78.50;;;;;;5032157;28;20033;-85
2021/07/21 08:48:43;;;;;;;10.70;5.43;;;20.50;78.60;;;;;;5032024;28;20037;-84
2021/07/21 08:51:10;;;;;;;12.55;4.97;;;20.50;78.70;;;;;;5031905;28;20034;-85
2021/07/21 08:53:37;;;;;;;11.82;5.40;;;20.50;78.70;;;;;;5030944;28;20355;-85
2021/07/21 08:56:03;;;;;;;10.90;5.22;;;20.60;78.60;;;;;;5031591;28;20036;-85
2021/07/21 08:58:29;;;;;;;10.30;5.10;;;20.60;78.30;;;;;;5031940;28;20032;-85
2021/07/21 09:00:55;;;;;;;8.30;3.97;;;20.60;78.10;;;;;;5031624;28;20021;-84
2021/07/21 09:03:22;;;;;;;7.63;3.95;;;20.70;77.80;;;;;;5032299;28;20109;-85
2021/07/21 09:05:52;;;;;;;10.73;4.25;;;20.70;77.40;;;;;;5030822;28;20026;-86
2021/07/21 09:08:18;;;;;;;11.93;4.70;;;20.80;77.10;;;;;;5030855;28;20026;-85
2021/07/21 09:10:46;;;;;;;8.60;4.38;;;20.80;76.80;;;;;;5030757;28;20028;-84
2021/07/21 09:13:15;;;;;;;6.85;3.78;;;20.90;76.70;;;;;;5030245;28;20330;-84
2021/07/21 09:15:46;;;;;;;7.85;3.47;;;20.90;76.50;;;;;;5030824;28;20072;-84
2021/07/21 09:18:13;;;;;;;;;;;20.90;76.40;;;;;;5031963;28;20018;-84
2021/07/21 09:20:57;;;;;;;6.70;3.65;;;20.90;76.30;;;;;;5030877;28;20377;-84
2021/07/21 09:23:44;;;;;;;9.32;4.47;;;21.00;76.10;;;;;;5031094;28;20030;-84
2021/07/21 09:26:12;;;;;;;9.43;4.97;;;21.00;75.80;;;;;;5031268;28;20037;-84
2021/07/21 09:28:42;;;;;;;8.38;4.03;;;21.00;75.60;;;;;;5032250;28;20139;-84
2021/07/21 09:31:12;;;;;;;8.07;4.22;;;21.00;75.20;;;;;;5030198;28;20426;-84
2021/07/21 09:33:39;;;;;;;6.70;3.00;;;21.10;75.10;;;;;;5031048;28;20091;-84
2021/07/21 09:36:05;;;;;;;8.48;3.85;;;21.10;74.80;;;;;;5030300;28;20439;-84
2021/07/21 09:38:31;;;;;;;6.82;3.03;;;21.10;74.40;;;;;;5030769;28;20018;-84
2021/07/21 09:41:04;;;;;;;8.55;3.55;;;21.20;74.00;;;;;;5030122;28;20029;-84
2021/07/21 09:43:34;;;;;;;8.07;2.70;;;21.20;73.60;;;;;;5032190;28;20116;-84
2021/07/21 09:46:11;;;;;;;7.28;2.83;;;21.20;73.30;;;;;;5032359;28;20492;-84
2021/07/21 09:48:42;;;;;;;7.13;2.83;;;21.30;72.70;;;;;;5030702;28;20021;-84
2021/07/21 09:51:09;;;;;;;6.38;2.72;;;21.30;72.40;;;;;;5031565;28;20041;-84
2021/07/21 09:53:39;;;;;;;6.72;3.00;;;21.40;72.10;;;;;;5031496;28;20026;-85
2021/07/21 09:56:05;;;;;;;5.55;2.40;;;21.40;71.70;;;;;;5031805;28;20040;-84
2021/07/21 09:58:35;;;;;;;7.38;2.92;;;21.50;71.60;;;;;;5053110;28;20029;-84
2021/07/21 10:01:01;;;;;;;5.55;2.90;;;21.50;70.80;;;;;;5052658;28;20009;-82
2021/07/21 10:03:27;;;;;;;6.57;2.90;;;21.50;70.50;;;;;;5050281;28;20461;-84
2021/07/21 10:06:02;;;;;;;5.82;2.90;;;21.60;70.20;;;;;;5035156;28;20033;-84
2021/07/21 10:08:47;;;;;;;8.27;3.33;;;21.70;69.90;;;;;;5032039;28;20604;-84
2021/07/21 10:11:36;;;;;;;5.10;2.75;;;21.90;69.30;;;;;;5033758;28;20040;-84
2021/07/21 10:14:02;;;;;;;5.72;3.13;;;21.90;68.60;;;;;;5033532;28;20018;-84
2021/07/21 10:16:40;;;;;;;6.72;3.28;;;22.00;68.30;;;;;;5033693;28;20083;-84
2021/07/21 10:19:15;;;;;;;5.32;2.60;;;22.10;66.30;;;;;;5034518;28;20067;-84
2021/07/21 10:21:46;;;;;;;6.82;3.30;;;22.30;65.90;;;;;;5035309;28;20017;-84
2021/07/21 10:24:12;;;;;;;5.80;3.33;;;22.40;65.80;;;;;;5033467;28;20021;-85
2021/07/21 10:26:39;;;;;;;7.18;3.30;;;22.40;65.40;;;;;;5034976;28;20044;-85
2021/07/21 10:29:07;;;;;;;6.97;3.28;;;22.50;64.80;;;;;;5033859;28;20021;-85
2021/07/21 10:31:34;;;;;;;8.18;3.60;;;22.50;64.30;;;;;;5033728;28;20026;-85
2021/07/21 10:34:00;;;;;;;6.32;3.05;;;22.60;64.30;;;;;;5034233;28;20049;-85
2021/07/21 10:36:26;;;;;;;7.68;3.08;;;22.70;64.10;;;;;;5034542;28;20030;-86
2021/07/21 10:38:52;;;;;;;7.07;3.55;;;22.70;63.80;;;;;;5033504;28;20059;-85
2021/07/21 10:41:19;;;;;;;6.30;2.85;;;22.80;63.40;;;;;;5034096;28;20096;-84
2021/07/21 10:43:51;;;;;;;6.07;3.33;;;22.80;63.40;;;;;;5033656;28;20029;-86
2021/07/21 10:46:32;;;;;;;7.00;3.25;;;22.80;63.40;;;;;;5034135;28;20141;-84
2021/07/21 10:49:16;;;;;;;6.93;3.78;;;22.90;63.30;;;;;;5033987;28;20053;-81
2021/07/21 11:00:30;;;;;;;7.40;2.72;;;23.10;62.50;;;;;;5033711;28;20037;-84
2021/07/21 11:03:15;;;;;;;6.43;2.97;;;23.20;62.60;;;;;;5033097;28;20022;-85
2021/07/21 11:05:43;;;;;;;6.68;3.42;;;23.30;62.40;;;;;;5034153;28;20049;-86
2021/07/21 11:08:21;;;;;;;5.65;3.20;;;23.30;62.20;;;;;;5033816;28;20025;-85
2021/07/21 11:10:50;;;;;;;5.28;2.85;;;23.40;61.70;;;;;;5032922;28;20046;-85
2021/07/21 11:13:28;;;;;;;8.07;3.90;;;23.50;61.50;;;;;;5032224;28;20381;-85
2021/07/21 11:15:55;;;;;;;7.35;3.05;;;23.50;61.20;;;;;;5032619;28;20116;-85
2021/07/21 11:18:26;;;;;;;6.25;3.33;;;23.50;61.80;;;;;;5032189;28;20426;-85
2021/07/21 11:21:02;;;;;;;6.90;2.72;;;23.60;60.80;;;;;;5032681;28;20097;-85
2021/07/21 11:23:44;;;;;;;6.07;3.35;;;23.70;60.50;;;;;;5032498;28;20078;-85
2021/07/21 11:26:31;;;;;;;7.45;3.30;;;23.70;59.90;;;;;;5031866;28;20078;-84
2021/07/21 11:29:18;;;;;;;8.48;3.22;;;23.80;60.10;;;;;;5033881;28;20032;-85
2021/07/21 11:31:50;;;;;;;5.78;2.80;;;23.90;60.00;;;;;;5032437;28;20029;-85
2021/07/21 11:34:29;;;;;;;6.65;3.63;;;24.10;59.80;;;;;;5031921;28;20117;-84
2021/07/21 11:37:06;;;;;;;6.95;3.72;;;24.20;59.60;;;;;;5033590;28;20052;-85
2021/07/21 11:39:45;;;;;;;6.95;3.60;;;24.40;58.70;;;;;;5033761;28;20018;-85
2021/07/21 11:42:36;;;;;;;7.85;3.05;;;24.50;58.40;;;;;;5031640;28;20026;-84
2021/07/21 11:45:06;;;;;;;;;;;24.50;58.10;;;;;;5033744;28;20053;-85
2021/07/21 11:47:36;;;;;;;5.85;2.75;;;24.50;58.30;;;;;;5033392;28;19919;-85
2021/07/21 11:50:11;;;;;;;6.45;3.10;;;24.60;58.30;;;;;;5031710;28;20049;-85
2021/07/21 11:52:38;;;;;;;4.80;2.70;;;24.80;58.00;;;;;;5032087;28;20133;-85
2021/07/21 11:55:04;;;;;;;7.47;2.95;;;24.80;57.80;;;;;;5032770;28;20163;-82
2021/07/21 11:57:29;;;;;;;6.70;2.90;;;24.80;57.60;;;;;;5033204;28;20037;-84
2021/07/21 11:59:57;;;;;;;5.63;2.70;;;24.80;57.40;;;;;;5031996;28;20047;-85
2021/07/21 12:02:26;;;;;;;6.50;2.83;;;24.80;57.30;;;;;;5031477;28;20794;-85
2021/07/21 12:04:56;;;;;;;7.20;3.35;;;24.90;57.10;;;;;;5031803;28;20160;-85
2021/07/21 12:07:30;;;;;;;7.00;3.17;;;25.10;57.30;;;;;;5032282;28;20033;-85
2021/07/21 12:09:56;;;;;;;7.20;3.72;;;25.20;56.60;;;;;;5032113;28;20083;-85
2021/07/21 12:12:25;;;;;;;5.60;2.80;;;25.30;56.40;;;;;;5032339;28;20025;-85
2021/07/21 12:14:56;;;;;;;6.55;3.65;;;25.40;56.30;;;;;;5031790;28;20014;-85
2021/07/21 12:17:23;;;;;;;4.78;2.80;;;25.50;55.80;;;;;;5032402;28;20036;-85
2021/07/21 12:19:58;;;;;;;6.43;3.03;;;25.50;55.90;;;;;;5040173;28;20030;-85
2021/07/21 12:22:25;;;;;;;5.97;3.50;;;25.50;55.50;;;;;;5040369;28;20100;-84
2021/07/21 12:24:53;;;;;;;7.15;3.70;;;25.60;55.50;;;;;;5037447;28;20022;-85
2021/07/21 12:27:37;;;;;;;7.50;3.53;;;25.70;55.10;;;;;;5033729;28;20065;-85
2021/07/21 12:30:12;;;;;;;8.75;3.63;;;25.80;53.80;;;;;;5032742;28;20022;-85
2021/07/21 12:32:38;;;;;;;5.22;2.80;;;25.80;54.20;;;;;;5034315;28;20025;-85
2021/07/21 12:35:09;;;;;;;5.28;2.70;;;25.80;54.40;;;;;;5031688;28;20524;-85
2021/07/21 12:37:41;;;;;;;5.13;2.80;;;26.00;54.70;;;;;;5031443;28;20158;-84
2021/07/21 12:40:10;;;;;;;4.60;2.60;;;26.10;54.60;;;;;;5030896;28;20358;-83
2021/07/21 12:42:36;;;;;;;6.03;3.30;;;26.10;54.70;;;;;;5031094;28;20025;-85
2021/07/21 12:45:26;;;;;;;5.60;2.95;;;26.00;54.90;;;;;;5031384;28;20052;-85
2021/07/21 12:47:55;;;;;;;5.80;2.58;;;26.00;54.70;;;;;;5031909;28;20112;-85
2021/07/21 12:50:30;;;;;;;5.88;2.70;;;25.90;54.80;;;;;;5030334;28;20446;-84
2021/07/21 12:53:15;;;;;;;6.35;3.38;;;25.80;54.70;;;;;;5031556;28;20044;-86
2021/07/21 12:55:43;;;;;;;5.97;3.13;;;25.70;54.30;;;;;;5031868;28;20045;-84
2021/07/21 12:58:11;;;;;;;5.57;2.92;;;25.60;54.60;;;;;;5032354;28;20036;-84
2021/07/21 13:01:06;;;;;;;8.15;3.85;;;25.50;55.20;;;;;;5031218;28;20022;-85
2021/07/21 13:03:32;;;;;;;6.63;2.90;;;25.60;55.50;;;;;;5035679;28;20053;-85
2021/07/21 13:06:01;;;;;;;5.45;3.08;;;25.80;55.30;;;;;;5031149;28;20034;-85
2021/07/21 13:08:32;;;;;;;6.95;3.15;;;26.10;54.70;;;;;;5030453;28;20117;-84